sensor_id;sensor_type;location;lat;lon;timestamp;temperature;humidity
13742;DHT22;8461;52.356;10.704;2023-02-13T00:01:01;7.10;99.90
13742;DHT22;8461;52.356;10.704;2023-02-13T00:03:27;7.20;99.90
13742;DHT22;8461;52.356;10.704;2023-02-13T00:05:52;7.20;99.90
13742;DHT22;8461;52.356;10.704;2023-02-13T00:08:18;7.10;99.90
13742;DHT22;8461;52.356;10.704;2023-02-13T00:10:43;7.20;99.90
13742;DHT22;8461;52.356;10.704;2023-02-13T00:13:09;7.20;99.90
13742;DHT22;8461;52.356;10.704;2023-02-13T00:15:34;7.20;99.90
13742;DHT22;8461;52.356;10.704;2023-02-13T00:18:01;7.20;99.90
13742;DHT22;8461;52.356;10.704;2023-02-13T00:20:27;7.10;99.90
13742;DHT22;8461;52.356;10.704;2023-02-13T00:22:52;7.10;99.90
13742;DHT22;8461;52.356;10.704;2023-02-13T00:25:18;7.10;99.90
13742;DHT22;8461;52.356;10.704;2023-02-13T00:27:44;7.10;99.90
13742;DHT22;8461;52.356;10.704;2023-02-13T00:30:09;7.20;99.90
13742;DHT22;8461;52.356;10.704;2023-02-13T00:32:35;7.20;99.90
13742;DHT22;8461;52.356;10.704;2023-02-13T00:35:01;7.20;99.90
13742;DHT22;8461;52.356;10.704;2023-02-13T00:37:26;7.10;99.90
13742;DHT22;8461;52.356;10.704;2023-02-13T00:39:52;7.10;99.90
13742;DHT22;8461;52.356;10.704;2023-02-13T00:42:18;7.10;99.90
13742;DHT22;8461;52.356;10.704;2023-02-13T00:44:44;7.10;99.90
13742;DHT22;8461;52.356;10.704;2023-02-13T00:47:10;6.90;99.90
13742;DHT22;8461;52.356;10.704;2023-02-13T00:49:39;6.90;99.90
13742;DHT22;8461;52.356;10.704;2023-02-13T00:52:04;6.90;99.90
13742;DHT22;8461;52.356;10.704;2023-02-13T00:54:30;7.00;99.90
13742;DHT22;8461;52.356;10.704;2023-02-13T00:56:55;7.10;99.90
13742;DHT22;8461;52.356;10.704;2023-02-13T00:59:21;7.10;99.90
13742;DHT22;8461;52.356;10.704;2023-02-13T01:01:46;7.10;99.90
13742;DHT22;8461;52.356;10.704;2023-02-13T01:04:12;7.10;99.90
13742;DHT22;8461;52.356;10.704;2023-02-13T01:06:37;7.00;99.90
13742;DHT22;8461;52.356;10.704;2023-02-13T01:09:03;7.00;99.90
13742;DHT22;8461;52.356;10.704;2023-02-13T01:11:29;7.00;99.90
13742;DHT22;8461;52.356;10.704;2023-02-13T01:13:54;7.00;99.90
13742;DHT22;8461;52.356;10.704;2023-02-13T01:16:20;7.00;99.90
13742;DHT22;8461;52.356;10.704;2023-02-13T01:18:45;7.00;99.90
13742;DHT22;8461;52.356;10.704;2023-02-13T01:21:16;7.00;99.90
13742;DHT22;8461;52.356;10.704;2023-02-13T01:23:42;7.00;99.90
13742;DHT22;8461;52.356;10.704;2023-02-13T01:26:12;7.00;99.90
13742;DHT22;8461;52.356;10.704;2023-02-13T01:28:39;7.00;99.90
13742;DHT22;8461;52.356;10.704;2023-02-13T01:31:04;7.00;99.90
13742;DHT22;8461;52.356;10.704;2023-02-13T01:33:30;7.00;99.90
13742;DHT22;8461;52.356;10.704;2023-02-13T01:35:55;7.00;99.90
13742;DHT22;8461;52.356;10.704;2023-02-13T01:38:22;6.90;99.90
13742;DHT22;8461;52.356;10.704;2023-02-13T01:40:51;6.90;99.90
13742;DHT22;8461;52.356;10.704;2023-02-13T01:43:17;6.90;99.90
13742;DHT22;8461;52.356;10.704;2023-02-13T01:45:44;6.80;99.90
13742;DHT22;8461;52.356;10.704;2023-02-13T01:48:20;6.80;99.90
13742;DHT22;8461;52.356;10.704;2023-02-13T01:50:50;7.00;99.90
13742;DHT22;8461;52.356;10.704;2023-02-13T01:53:27;7.00;99.90
13742;DHT22;8461;52.356;10.704;2023-02-13T01:55:58;6.90;99.90
13742;DHT22;8461;52.356;10.704;2023-02-13T01:58:30;6.90;99.90
13742;DHT22;8461;52.356;10.704;2023-02-13T02:00:57;6.90;99.90
13742;DHT22;8461;52.356;10.704;2023-02-13T02:05:59;7.00;99.90
13742;DHT22;8461;52.356;10.704;2023-02-13T02:08:26;7.00;99.90
13742;DHT22;8461;52.356;10.704;2023-02-13T02:10:53;7.10;99.90
13742;DHT22;8461;52.356;10.704;2023-02-13T02:13:20;7.10;99.90
13742;DHT22;8461;52.356;10.704;2023-02-13T02:15:47;7.00;99.90
13742;DHT22;8461;52.356;10.704;2023-02-13T02:18:21;7.10;99.90
13742;DHT22;8461;52.356;10.704;2023-02-13T02:32:45;6.90;99.90
13742;DHT22;8461;52.356;10.704;2023-02-13T02:40:50;6.80;99.90
13742;DHT22;8461;52.356;10.704;2023-02-13T02:46:30;6.90;99.90
13742;DHT22;8461;52.356;10.704;2023-02-13T02:49:05;6.80;99.90
13742;DHT22;8461;52.356;10.704;2023-02-13T02:52:08;6.70;99.90
13742;DHT22;8461;52.356;10.704;2023-02-13T02:54:43;6.70;99.90
13742;DHT22;8461;52.356;10.704;2023-02-13T02:57:30;6.60;99.90
13742;DHT22;8461;52.356;10.704;2023-02-13T03:00:17;6.70;99.90
13742;DHT22;8461;52.356;10.704;2023-02-13T03:03:04;6.80;99.90
13742;DHT22;8461;52.356;10.704;2023-02-13T03:05:50;6.80;99.90
13742;DHT22;8461;52.356;10.704;2023-02-13T03:08:35;6.80;99.90
13742;DHT22;8461;52.356;10.704;2023-02-13T03:11:20;6.80;99.90
13742;DHT22;8461;52.356;10.704;2023-02-13T03:14:06;6.80;99.90
13742;DHT22;8461;52.356;10.704;2023-02-13T03:16:34;6.90;99.90
13742;DHT22;8461;52.356;10.704;2023-02-13T03:19:30;6.80;99.90
13742;DHT22;8461;52.356;10.704;2023-02-13T03:22:30;6.80;99.90
13742;DHT22;8461;52.356;10.704;2023-02-13T03:25:10;6.70;99.90
13742;DHT22;8461;52.356;10.704;2023-02-13T03:28:18;6.80;99.90
13742;DHT22;8461;52.356;10.704;2023-02-13T03:31:20;6.80;99.90
13742;DHT22;8461;52.356;10.704;2023-02-13T03:33:58;6.80;99.90
13742;DHT22;8461;52.356;10.704;2023-02-13T03:36:34;6.80;99.90
13742;DHT22;8461;52.356;10.704;2023-02-13T03:42:04;6.80;99.90
13742;DHT22;8461;52.356;10.704;2023-02-13T03:44:38;6.70;99.90
13742;DHT22;8461;52.356;10.704;2023-02-13T03:47:08;6.60;99.90
13742;DHT22;8461;52.356;10.704;2023-02-13T03:49:41;6.70;99.90
13742;DHT22;8461;52.356;10.704;2023-02-13T03:52:49;6.80;99.90
13742;DHT22;8461;52.356;10.704;2023-02-13T03:58:27;6.80;99.90
13742;DHT22;8461;52.356;10.704;2023-02-13T04:01:15;6.80;99.90
13742;DHT22;8461;52.356;10.704;2023-02-13T04:06:17;6.60;99.90
13742;DHT22;8461;52.356;10.704;2023-02-13T04:08:44;6.60;99.90
13742;DHT22;8461;52.356;10.704;2023-02-13T04:11:15;6.70;99.90
13742;DHT22;8461;52.356;10.704;2023-02-13T04:16:15;6.50;99.90
13742;DHT22;8461;52.356;10.704;2023-02-13T04:18:43;6.70;99.90
13742;DHT22;8461;52.356;10.704;2023-02-13T04:21:09;6.80;99.90
13742;DHT22;8461;52.356;10.704;2023-02-13T04:23:35;6.80;99.90
13742;DHT22;8461;52.356;10.704;2023-02-13T04:26:07;6.60;99.90
13742;DHT22;8461;52.356;10.704;2023-02-13T04:28:37;6.70;99.90
13742;DHT22;8461;52.356;10.704;2023-02-13T04:31:02;6.70;99.90
13742;DHT22;8461;52.356;10.704;2023-02-13T04:33:28;6.60;99.90
13742;DHT22;8461;52.356;10.704;2023-02-13T04:35:54;6.60;99.90
13742;DHT22;8461;52.356;10.704;2023-02-13T04:38:19;6.60;99.90
13742;DHT22;8461;52.356;10.704;2023-02-13T04:40:45;6.60;99.90
13742;DHT22;8461;52.356;10.704;2023-02-13T04:43:10;6.70;99.90
13742;DHT22;8461;52.356;10.704;2023-02-13T04:45:36;6.70;99.90
13742;DHT22;8461;52.356;10.704;2023-02-13T04:48:01;6.80;99.90
13742;DHT22;8461;52.356;10.704;2023-02-13T04:50:27;6.80;99.90
13742;DHT22;8461;52.356;10.704;2023-02-13T04:52:54;6.80;99.90
13742;DHT22;8461;52.356;10.704;2023-02-13T04:55:21;6.70;99.90
13742;DHT22;8461;52.356;10.704;2023-02-13T04:57:47;6.60;99.90
13742;DHT22;8461;52.356;10.704;2023-02-13T05:00:13;6.60;99.90
13742;DHT22;8461;52.356;10.704;2023-02-13T05:02:39;6.70;99.90
13742;DHT22;8461;52.356;10.704;2023-02-13T05:05:04;6.70;99.90
13742;DHT22;8461;52.356;10.704;2023-02-13T05:07:30;6.70;99.90
13742;DHT22;8461;52.356;10.704;2023-02-13T05:09:56;6.70;99.90
13742;DHT22;8461;52.356;10.704;2023-02-13T05:12:21;6.80;99.90
13742;DHT22;8461;52.356;10.704;2023-02-13T05:14:47;6.70;99.90
13742;DHT22;8461;52.356;10.704;2023-02-13T05:17:12;6.80;99.90
13742;DHT22;8461;52.356;10.704;2023-02-13T05:19:38;6.70;99.90
13742;DHT22;8461;52.356;10.704;2023-02-13T05:22:03;6.80;99.90
13742;DHT22;8461;52.356;10.704;2023-02-13T05:24:48;6.80;99.90
13742;DHT22;8461;52.356;10.704;2023-02-13T05:27:13;6.70;99.90
13742;DHT22;8461;52.356;10.704;2023-02-13T05:29:39;6.80;99.90
13742;DHT22;8461;52.356;10.704;2023-02-13T05:32:04;6.70;99.90
13742;DHT22;8461;52.356;10.704;2023-02-13T05:34:30;6.60;99.90
13742;DHT22;8461;52.356;10.704;2023-02-13T05:36:55;6.70;99.90
13742;DHT22;8461;52.356;10.704;2023-02-13T05:39:21;6.70;99.90
13742;DHT22;8461;52.356;10.704;2023-02-13T05:41:48;6.70;99.90
13742;DHT22;8461;52.356;10.704;2023-02-13T05:44:14;6.70;99.90
13742;DHT22;8461;52.356;10.704;2023-02-13T05:46:40;6.60;99.90
13742;DHT22;8461;52.356;10.704;2023-02-13T05:49:07;6.70;99.90
13742;DHT22;8461;52.356;10.704;2023-02-13T05:51:33;6.70;99.90
13742;DHT22;8461;52.356;10.704;2023-02-13T05:53:59;6.60;99.90
13742;DHT22;8461;52.356;10.704;2023-02-13T05:56:24;6.70;99.90
13742;DHT22;8461;52.356;10.704;2023-02-13T05:58:51;6.70;99.90
13742;DHT22;8461;52.356;10.704;2023-02-13T06:01:17;6.70;99.90
13742;DHT22;8461;52.356;10.704;2023-02-13T06:03:43;6.70;99.90
13742;DHT22;8461;52.356;10.704;2023-02-13T06:06:08;6.70;99.90
13742;DHT22;8461;52.356;10.704;2023-02-13T06:08:34;6.70;99.90
13742;DHT22;8461;52.356;10.704;2023-02-13T06:11:00;6.70;99.90
13742;DHT22;8461;52.356;10.704;2023-02-13T06:13:25;6.70;99.90
13742;DHT22;8461;52.356;10.704;2023-02-13T06:15:51;6.70;99.90
13742;DHT22;8461;52.356;10.704;2023-02-13T06:18:16;6.60;99.90
13742;DHT22;8461;52.356;10.704;2023-02-13T06:20:42;6.50;99.90
13742;DHT22;8461;52.356;10.704;2023-02-13T06:23:08;6.50;99.90
13742;DHT22;8461;52.356;10.704;2023-02-13T06:25:34;6.40;99.90
13742;DHT22;8461;52.356;10.704;2023-02-13T06:28:01;6.30;99.90
13742;DHT22;8461;52.356;10.704;2023-02-13T06:30:26;6.40;99.90
13742;DHT22;8461;52.356;10.704;2023-02-13T06:32:52;6.40;99.90
13742;DHT22;8461;52.356;10.704;2023-02-13T06:35:17;6.40;99.90
13742;DHT22;8461;52.356;10.704;2023-02-13T06:37:43;6.40;99.90
13742;DHT22;8461;52.356;10.704;2023-02-13T06:40:09;6.40;99.90
13742;DHT22;8461;52.356;10.704;2023-02-13T06:42:35;6.40;99.90
13742;DHT22;8461;52.356;10.704;2023-02-13T06:45:01;6.30;99.90
13742;DHT22;8461;52.356;10.704;2023-02-13T06:47:27;6.30;99.90
13742;DHT22;8461;52.356;10.704;2023-02-13T06:49:52;6.30;99.90
13742;DHT22;8461;52.356;10.704;2023-02-13T06:52:18;6.30;99.90
13742;DHT22;8461;52.356;10.704;2023-02-13T06:54:44;6.30;99.90
13742;DHT22;8461;52.356;10.704;2023-02-13T06:57:10;6.30;99.90
13742;DHT22;8461;52.356;10.704;2023-02-13T06:59:35;6.30;99.90
13742;DHT22;8461;52.356;10.704;2023-02-13T07:02:01;6.40;99.90
13742;DHT22;8461;52.356;10.704;2023-02-13T07:04:27;6.40;99.90
13742;DHT22;8461;52.356;10.704;2023-02-13T07:06:56;6.40;99.90
13742;DHT22;8461;52.356;10.704;2023-02-13T07:09:23;6.40;99.90
13742;DHT22;8461;52.356;10.704;2023-02-13T07:11:49;6.30;99.90
13742;DHT22;8461;52.356;10.704;2023-02-13T07:14:14;6.30;99.90
13742;DHT22;8461;52.356;10.704;2023-02-13T07:16:40;6.30;99.90
13742;DHT22;8461;52.356;10.704;2023-02-13T07:19:06;6.30;99.90
13742;DHT22;8461;52.356;10.704;2023-02-13T07:21:31;6.30;99.90
13742;DHT22;8461;52.356;10.704;2023-02-13T07:23:57;6.30;99.90
13742;DHT22;8461;52.356;10.704;2023-02-13T07:26:22;6.40;99.90
13742;DHT22;8461;52.356;10.704;2023-02-13T07:28:48;6.40;99.90
13742;DHT22;8461;52.356;10.704;2023-02-13T07:31:13;6.40;99.90
13742;DHT22;8461;52.356;10.704;2023-02-13T07:33:39;6.40;99.90
13742;DHT22;8461;52.356;10.704;2023-02-13T07:36:05;6.50;99.90
13742;DHT22;8461;52.356;10.704;2023-02-13T07:38:31;6.50;99.90
13742;DHT22;8461;52.356;10.704;2023-02-13T07:41:01;6.60;99.90
13742;DHT22;8461;52.356;10.704;2023-02-13T07:43:27;6.60;99.90
13742;DHT22;8461;52.356;10.704;2023-02-13T07:45:53;6.60;99.90
13742;DHT22;8461;52.356;10.704;2023-02-13T07:48:22;6.70;99.90
13742;DHT22;8461;52.356;10.704;2023-02-13T07:50:47;6.70;99.90
13742;DHT22;8461;52.356;10.704;2023-02-13T07:53:13;6.70;99.90
13742;DHT22;8461;52.356;10.704;2023-02-13T07:55:38;6.70;99.90
13742;DHT22;8461;52.356;10.704;2023-02-13T07:58:04;6.80;99.90
13742;DHT22;8461;52.356;10.704;2023-02-13T08:00:30;6.80;99.90
13742;DHT22;8461;52.356;10.704;2023-02-13T08:02:59;6.70;99.90
13742;DHT22;8461;52.356;10.704;2023-02-13T08:05:25;6.70;99.90
13742;DHT22;8461;52.356;10.704;2023-02-13T08:07:51;6.60;99.90
13742;DHT22;8461;52.356;10.704;2023-02-13T08:10:17;6.60;99.90
13742;DHT22;8461;52.356;10.704;2023-02-13T08:13:01;6.70;99.90
13742;DHT22;8461;52.356;10.704;2023-02-13T08:15:26;6.80;99.90
13742;DHT22;8461;52.356;10.704;2023-02-13T08:17:52;6.80;99.90
13742;DHT22;8461;52.356;10.704;2023-02-13T08:20:18;6.80;99.90
13742;DHT22;8461;52.356;10.704;2023-02-13T08:22:44;6.80;99.90
13742;DHT22;8461;52.356;10.704;2023-02-13T08:25:09;6.80;99.90
13742;DHT22;8461;52.356;10.704;2023-02-13T08:27:35;6.80;99.90
13742;DHT22;8461;52.356;10.704;2023-02-13T08:30:00;6.80;99.90
13742;DHT22;8461;52.356;10.704;2023-02-13T08:32:27;6.80;99.90
13742;DHT22;8461;52.356;10.704;2023-02-13T08:34:53;6.90;99.90
13742;DHT22;8461;52.356;10.704;2023-02-13T08:37:18;6.90;99.90
13742;DHT22;8461;52.356;10.704;2023-02-13T08:39:44;7.00;99.90
13742;DHT22;8461;52.356;10.704;2023-02-13T08:42:09;7.00;99.90
13742;DHT22;8461;52.356;10.704;2023-02-13T08:44:35;7.00;99.90
13742;DHT22;8461;52.356;10.704;2023-02-13T08:47:02;7.00;99.90
13742;DHT22;8461;52.356;10.704;2023-02-13T08:49:29;7.00;99.90
13742;DHT22;8461;52.356;10.704;2023-02-13T08:51:55;7.00;99.90
13742;DHT22;8461;52.356;10.704;2023-02-13T08:54:20;7.00;99.90
13742;DHT22;8461;52.356;10.704;2023-02-13T08:56:46;7.20;99.90
13742;DHT22;8461;52.356;10.704;2023-02-13T08:59:11;7.30;99.90
13742;DHT22;8461;52.356;10.704;2023-02-13T09:01:37;7.30;99.90
13742;DHT22;8461;52.356;10.704;2023-02-13T09:04:03;7.30;99.90
13742;DHT22;8461;52.356;10.704;2023-02-13T09:06:29;7.30;99.90
13742;DHT22;8461;52.356;10.704;2023-02-13T09:08:54;7.10;99.90
13742;DHT22;8461;52.356;10.704;2023-02-13T09:11:20;7.10;99.90
13742;DHT22;8461;52.356;10.704;2023-02-13T09:13:48;7.30;99.90
13742;DHT22;8461;52.356;10.704;2023-02-13T09:16:14;7.30;99.90
13742;DHT22;8461;52.356;10.704;2023-02-13T09:18:40;7.40;99.90
13742;DHT22;8461;52.356;10.704;2023-02-13T09:21:07;7.40;99.90
13742;DHT22;8461;52.356;10.704;2023-02-13T09:23:35;7.40;99.90
13742;DHT22;8461;52.356;10.704;2023-02-13T09:26:02;7.40;99.90
13742;DHT22;8461;52.356;10.704;2023-02-13T09:28:29;7.50;99.90
13742;DHT22;8461;52.356;10.704;2023-02-13T09:30:55;7.50;99.90
13742;DHT22;8461;52.356;10.704;2023-02-13T09:33:21;7.50;99.90
13742;DHT22;8461;52.356;10.704;2023-02-13T09:35:46;7.50;99.90
13742;DHT22;8461;52.356;10.704;2023-02-13T09:38:12;7.60;99.90
13742;DHT22;8461;52.356;10.704;2023-02-13T09:40:46;7.50;99.90
13742;DHT22;8461;52.356;10.704;2023-02-13T09:43:28;7.50;99.90
13742;DHT22;8461;52.356;10.704;2023-02-13T09:45:58;7.60;99.90
13742;DHT22;8461;52.356;10.704;2023-02-13T09:48:31;7.60;99.90
13742;DHT22;8461;52.356;10.704;2023-02-13T09:50:58;7.70;99.90
13742;DHT22;8461;52.356;10.704;2023-02-13T09:53:25;7.80;99.90
13742;DHT22;8461;52.356;10.704;2023-02-13T09:58:51;7.80;99.90
13742;DHT22;8461;52.356;10.704;2023-02-13T10:01:32;7.70;99.90
13742;DHT22;8461;52.356;10.704;2023-02-13T10:06:49;7.80;99.90
13742;DHT22;8461;52.356;10.704;2023-02-13T10:12:45;7.70;99.90
13742;DHT22;8461;52.356;10.704;2023-02-13T10:17:56;7.80;99.90
13742;DHT22;8461;52.356;10.704;2023-02-13T10:20:38;7.80;99.90
13742;DHT22;8461;52.356;10.704;2023-02-13T10:25:56;7.90;99.90
13742;DHT22;8461;52.356;10.704;2023-02-13T10:28:36;7.90;99.90
13742;DHT22;8461;52.356;10.704;2023-02-13T10:31:06;7.90;99.90
13742;DHT22;8461;52.356;10.704;2023-02-13T10:33:49;7.90;99.90
13742;DHT22;8461;52.356;10.704;2023-02-13T10:36:18;7.90;99.90
13742;DHT22;8461;52.356;10.704;2023-02-13T10:52:50;7.80;99.90
13742;DHT22;8461;52.356;10.704;2023-02-13T10:55:48;7.80;99.90
13742;DHT22;8461;52.356;10.704;2023-02-13T10:58:21;7.80;99.90
13742;DHT22;8461;52.356;10.704;2023-02-13T11:01:08;7.80;99.90
13742;DHT22;8461;52.356;10.704;2023-02-13T11:03:35;7.90;99.90
13742;DHT22;8461;52.356;10.704;2023-02-13T11:06:05;8.00;99.90
13742;DHT22;8461;52.356;10.704;2023-02-13T11:08:34;8.00;99.90
13742;DHT22;8461;52.356;10.704;2023-02-13T11:11:03;8.00;99.90
13742;DHT22;8461;52.356;10.704;2023-02-13T11:13:29;8.00;99.90
13742;DHT22;8461;52.356;10.704;2023-02-13T11:18:24;7.80;99.90
13742;DHT22;8461;52.356;10.704;2023-02-13T11:21:31;7.90;99.90
13742;DHT22;8461;52.356;10.704;2023-02-13T11:23:58;7.90;99.90
13742;DHT22;8461;52.356;10.704;2023-02-13T11:26:32;8.00;99.90
13742;DHT22;8461;52.356;10.704;2023-02-13T11:29:03;7.90;99.90
13742;DHT22;8461;52.356;10.704;2023-02-13T11:31:32;8.00;99.90
13742;DHT22;8461;52.356;10.704;2023-02-13T11:33:59;8.00;99.90
13742;DHT22;8461;52.356;10.704;2023-02-13T11:36:41;7.90;99.90
13742;DHT22;8461;52.356;10.704;2023-02-13T11:39:18;7.90;99.90
13742;DHT22;8461;52.356;10.704;2023-02-13T11:41:45;7.90;99.90
13742;DHT22;8461;52.356;10.704;2023-02-13T11:46:50;7.90;99.90
13742;DHT22;8461;52.356;10.704;2023-02-13T11:49:19;7.90;99.90
13742;DHT22;8461;52.356;10.704;2023-02-13T11:51:49;7.80;99.90
13742;DHT22;8461;52.356;10.704;2023-02-13T11:54:33;7.80;99.90
13742;DHT22;8461;52.356;10.704;2023-02-13T11:59:50;7.90;99.90
13742;DHT22;8461;52.356;10.704;2023-02-13T12:02:19;7.80;99.90
13742;DHT22;8461;52.356;10.704;2023-02-13T12:04:46;7.90;99.90
13742;DHT22;8461;52.356;10.704;2023-02-13T12:07:30;7.90;99.90
13742;DHT22;8461;52.356;10.704;2023-02-13T12:15:29;8.10;99.90
13742;DHT22;8461;52.356;10.704;2023-02-13T12:21:02;8.10;99.90
13742;DHT22;8461;52.356;10.704;2023-02-13T12:23:49;8.10;99.90
13742;DHT22;8461;52.356;10.704;2023-02-13T12:26:39;8.20;99.90
13742;DHT22;8461;52.356;10.704;2023-02-13T12:34:39;8.40;99.90
13742;DHT22;8461;52.356;10.704;2023-02-13T12:40:29;8.50;99.90
13742;DHT22;8461;52.356;10.704;2023-02-13T12:46:26;8.50;99.90
13742;DHT22;8461;52.356;10.704;2023-02-13T12:52:01;8.50;99.90
13742;DHT22;8461;52.356;10.704;2023-02-13T13:09:07;8.50;99.90
13742;DHT22;8461;52.356;10.704;2023-02-13T13:20:33;8.60;99.90
13742;DHT22;8461;52.356;10.704;2023-02-13T13:23:12;8.50;99.90
13742;DHT22;8461;52.356;10.704;2023-02-13T13:28:57;8.60;99.90
13742;DHT22;8461;52.356;10.704;2023-02-13T13:31:15;8.60;99.90
13742;DHT22;8461;52.356;10.704;2023-02-13T13:33:45;8.60;99.90
13742;DHT22;8461;52.356;10.704;2023-02-13T13:39:03;8.50;99.90
13742;DHT22;8461;52.356;10.704;2023-02-13T13:49:47;8.50;99.90
13742;DHT22;8461;52.356;10.704;2023-02-13T13:52:32;8.50;99.90
13742;DHT22;8461;52.356;10.704;2023-02-13T13:54:59;8.50;99.90
13742;DHT22;8461;52.356;10.704;2023-02-13T13:57:58;8.50;99.90
13742;DHT22;8461;52.356;10.704;2023-02-13T14:00:29;8.50;99.90
13742;DHT22;8461;52.356;10.704;2023-02-13T14:05:32;8.50;99.90
13742;DHT22;8461;52.356;10.704;2023-02-13T14:11:05;8.50;99.90
13742;DHT22;8461;52.356;10.704;2023-02-13T14:13:38;8.60;99.90
13742;DHT22;8461;52.356;10.704;2023-02-13T14:16:43;8.50;99.90
13742;DHT22;8461;52.356;10.704;2023-02-13T14:19:45;8.50;99.90
13742;DHT22;8461;52.356;10.704;2023-02-13T14:24:52;8.40;99.90
13742;DHT22;8461;52.356;10.704;2023-02-13T14:27:25;8.50;99.90
13742;DHT22;8461;52.356;10.704;2023-02-13T14:29:53;8.50;99.90
13742;DHT22;8461;52.356;10.704;2023-02-13T14:32:35;8.60;99.90
13742;DHT22;8461;52.356;10.704;2023-02-13T14:35:17;8.70;99.90
13742;DHT22;8461;52.356;10.704;2023-02-13T14:37:54;8.60;99.90
13742;DHT22;8461;52.356;10.704;2023-02-13T14:45:47;8.60;99.90
13742;DHT22;8461;52.356;10.704;2023-02-13T14:48:14;8.50;99.90
13742;DHT22;8461;52.356;10.704;2023-02-13T14:50:48;8.50;99.90
13742;DHT22;8461;52.356;10.704;2023-02-13T14:53:27;8.40;99.90
13742;DHT22;8461;52.356;10.704;2023-02-13T14:56:04;8.50;99.90
13742;DHT22;8461;52.356;10.704;2023-02-13T14:58:33;8.50;99.90
13742;DHT22;8461;52.356;10.704;2023-02-13T15:03:39;8.50;99.90
13742;DHT22;8461;52.356;10.704;2023-02-13T15:06:13;8.40;99.90
13742;DHT22;8461;52.356;10.704;2023-02-13T15:08:49;8.40;99.90
13742;DHT22;8461;52.356;10.704;2023-02-13T15:11:34;8.30;99.90
13742;DHT22;8461;52.356;10.704;2023-02-13T15:16:54;8.30;99.90
13742;DHT22;8461;52.356;10.704;2023-02-13T15:19:22;8.20;99.90
13742;DHT22;8461;52.356;10.704;2023-02-13T15:21:54;8.20;99.90
13742;DHT22;8461;52.356;10.704;2023-02-13T15:24:21;8.20;99.90
13742;DHT22;8461;52.356;10.704;2023-02-13T15:26:59;8.20;99.90
13742;DHT22;8461;52.356;10.704;2023-02-13T15:29:26;8.20;99.90
13742;DHT22;8461;52.356;10.704;2023-02-13T15:31:52;8.20;99.90
13742;DHT22;8461;52.356;10.704;2023-02-13T15:34:26;8.20;99.90
13742;DHT22;8461;52.356;10.704;2023-02-13T15:36:53;8.20;99.90
13742;DHT22;8461;52.356;10.704;2023-02-13T15:39:23;8.20;99.90
13742;DHT22;8461;52.356;10.704;2023-02-13T15:41:55;8.20;99.90
13742;DHT22;8461;52.356;10.704;2023-02-13T15:44:31;8.30;99.90
13742;DHT22;8461;52.356;10.704;2023-02-13T15:47:04;8.20;99.90
13742;DHT22;8461;52.356;10.704;2023-02-13T15:49:37;8.20;99.90
13742;DHT22;8461;52.356;10.704;2023-02-13T15:52:30;8.10;99.90
13742;DHT22;8461;52.356;10.704;2023-02-13T15:54:56;8.00;99.90
13742;DHT22;8461;52.356;10.704;2023-02-13T15:57:22;8.00;99.90
13742;DHT22;8461;52.356;10.704;2023-02-13T15:59:50;8.00;99.90
13742;DHT22;8461;52.356;10.704;2023-02-13T16:02:19;8.00;99.90
13742;DHT22;8461;52.356;10.704;2023-02-13T16:04:48;8.00;99.90
13742;DHT22;8461;52.356;10.704;2023-02-13T16:07:14;8.00;99.90
13742;DHT22;8461;52.356;10.704;2023-02-13T16:09:40;7.90;99.90
13742;DHT22;8461;52.356;10.704;2023-02-13T16:12:23;7.90;99.90
13742;DHT22;8461;52.356;10.704;2023-02-13T16:14:54;7.80;99.90
13742;DHT22;8461;52.356;10.704;2023-02-13T16:17:34;7.70;99.90
13742;DHT22;8461;52.356;10.704;2023-02-13T16:20:07;7.70;99.90
13742;DHT22;8461;52.356;10.704;2023-02-13T16:22:49;7.60;99.90
13742;DHT22;8461;52.356;10.704;2023-02-13T16:25:17;7.50;99.90
13742;DHT22;8461;52.356;10.704;2023-02-13T16:27:49;7.60;99.90
13742;DHT22;8461;52.356;10.704;2023-02-13T16:30:34;7.60;99.90
13742;DHT22;8461;52.356;10.704;2023-02-13T16:35:43;7.70;99.90
13742;DHT22;8461;52.356;10.704;2023-02-13T16:38:32;7.70;99.90
13742;DHT22;8461;52.356;10.704;2023-02-13T16:48:46;7.70;99.90
13742;DHT22;8461;52.356;10.704;2023-02-13T16:51:12;7.70;99.90
13742;DHT22;8461;52.356;10.704;2023-02-13T16:53:38;7.70;99.90
13742;DHT22;8461;52.356;10.704;2023-02-13T16:56:09;7.70;99.90
13742;DHT22;8461;52.356;10.704;2023-02-13T16:58:35;7.70;99.90
13742;DHT22;8461;52.356;10.704;2023-02-13T17:01:02;7.80;99.90
13742;DHT22;8461;52.356;10.704;2023-02-13T17:03:31;7.80;99.90
13742;DHT22;8461;52.356;10.704;2023-02-13T17:06:01;7.80;99.90
13742;DHT22;8461;52.356;10.704;2023-02-13T17:08:26;7.80;99.90
13742;DHT22;8461;52.356;10.704;2023-02-13T17:11:02;7.70;99.90
13742;DHT22;8461;52.356;10.704;2023-02-13T17:13:28;7.70;99.90
13742;DHT22;8461;52.356;10.704;2023-02-13T17:15:54;7.60;99.90
13742;DHT22;8461;52.356;10.704;2023-02-13T17:18:20;7.70;99.90
13742;DHT22;8461;52.356;10.704;2023-02-13T17:20:45;7.60;99.90
13742;DHT22;8461;52.356;10.704;2023-02-13T17:23:15;7.60;99.90
13742;DHT22;8461;52.356;10.704;2023-02-13T17:25:42;7.70;99.90
13742;DHT22;8461;52.356;10.704;2023-02-13T17:28:16;7.70;99.90
13742;DHT22;8461;52.356;10.704;2023-02-13T17:30:43;7.60;99.90
13742;DHT22;8461;52.356;10.704;2023-02-13T17:35:40;7.70;99.90
13742;DHT22;8461;52.356;10.704;2023-02-13T17:38:05;7.70;99.90
13742;DHT22;8461;52.356;10.704;2023-02-13T17:40:33;7.70;99.90
13742;DHT22;8461;52.356;10.704;2023-02-13T17:43:00;7.60;99.90
13742;DHT22;8461;52.356;10.704;2023-02-13T17:45:27;7.60;99.90
13742;DHT22;8461;52.356;10.704;2023-02-13T17:47:54;7.60;99.90
13742;DHT22;8461;52.356;10.704;2023-02-13T17:50:23;7.50;99.90
13742;DHT22;8461;52.356;10.704;2023-02-13T17:52:49;7.50;99.90
13742;DHT22;8461;52.356;10.704;2023-02-13T17:55:23;7.60;99.90
13742;DHT22;8461;52.356;10.704;2023-02-13T17:57:50;7.50;99.90
13742;DHT22;8461;52.356;10.704;2023-02-13T18:00:17;7.50;99.90
13742;DHT22;8461;52.356;10.704;2023-02-13T18:02:45;7.50;99.90
13742;DHT22;8461;52.356;10.704;2023-02-13T18:05:16;7.50;99.90
13742;DHT22;8461;52.356;10.704;2023-02-13T18:07:43;7.50;99.90
13742;DHT22;8461;52.356;10.704;2023-02-13T18:10:20;7.40;99.90
13742;DHT22;8461;52.356;10.704;2023-02-13T18:12:47;7.40;99.90
13742;DHT22;8461;52.356;10.704;2023-02-13T18:15:14;7.20;99.90
13742;DHT22;8461;52.356;10.704;2023-02-13T18:17:39;7.20;99.90
13742;DHT22;8461;52.356;10.704;2023-02-13T18:20:06;7.20;99.90
13742;DHT22;8461;52.356;10.704;2023-02-13T18:22:32;7.10;99.90
13742;DHT22;8461;52.356;10.704;2023-02-13T18:24:59;7.00;99.90
13742;DHT22;8461;52.356;10.704;2023-02-13T18:27:26;6.90;99.90
13742;DHT22;8461;52.356;10.704;2023-02-13T18:29:53;6.90;99.90
13742;DHT22;8461;52.356;10.704;2023-02-13T18:32:19;6.80;99.90
13742;DHT22;8461;52.356;10.704;2023-02-13T18:34:45;6.80;99.90
13742;DHT22;8461;52.356;10.704;2023-02-13T18:37:11;6.80;99.90
13742;DHT22;8461;52.356;10.704;2023-02-13T18:39:37;6.90;99.90
13742;DHT22;8461;52.356;10.704;2023-02-13T18:42:03;6.90;99.90
13742;DHT22;8461;52.356;10.704;2023-02-13T18:44:28;6.90;99.90
13742;DHT22;8461;52.356;10.704;2023-02-13T18:46:54;6.90;99.90